Time;durP1;ratioP1;P1;durP2;ratioP2;P2;SDS_P1;SDS_P2;PMS_P1;PMS_P2;Temp;Humidity;BMP_temperature;BMP_pressure;BME280_temperature;BME280_humidity;BME280_pressure;Samples;Min_cycle;Max_cycle;Signal;HPM_P1;HPM_P2
2022/01/02 00:03:18;;;;;;;30.92;17.58;;;;;;;5.74;100.00;101113.72;21001305;28;20051;-83
2022/01/02 00:13:25;;;;;;;33.38;18.05;;;;;;;5.69;100.00;101117.97;20987217;28;20041;-83
2022/01/02 00:23:31;;;;;;;35.00;18.70;;;;;;;5.51;100.00;101089.09;21010063;28;20139;-84
2022/01/02 00:33:32;;;;;;;32.45;19.50;;;;;;;5.45;100.00;101060.44;20981472;28;20045;-83
2022/01/02 00:43:47;;;;;;;41.20;20.23;;;;;;;5.38;100.00;101055.16;20979575;28;20052;-85
2022/01/02 00:53:50;;;;;;;37.15;19.55;;;;;;;5.27;100.00;101045.44;20982756;28;20074;-84
2022/01/02 01:03:53;;;;;;;40.63;22.13;;;;;;;5.25;100.00;101035.03;20990466;28;20048;-84
2022/01/02 01:13:57;;;;;;;42.78;22.92;;;;;;;5.43;100.00;101038.78;20992510;28;20055;-84
2022/01/02 01:23:59;;;;;;;45.95;23.90;;;;;;;5.46;100.00;101025.81;20996639;28;20110;-84
2022/01/02 01:34:00;;;;;;;47.28;23.58;;;;;;;5.41;100.00;101049.13;20978227;28;20036;-84
2022/01/02 01:44:21;;;;;;;41.20;21.95;;;;;;;5.29;100.00;101036.84;20992203;28;20098;-84
2022/01/02 01:54:23;;;;;;;38.42;21.98;;;;;;;5.11;100.00;101027.03;20992513;28;20036;-83
2022/01/02 02:04:24;;;;;;;38.05;21.25;;;;;;;4.92;100.00;101016.31;20997583;28;20165;-84
2022/01/02 02:14:26;;;;;;;41.10;22.08;;;;;;;4.88;100.00;101010.19;20919446;23;20057;-74
2022/01/02 02:24:28;;;;;;;39.25;20.88;;;;;;;4.85;100.00;101003.25;20816057;28;20103;-73
2022/01/02 02:34:29;;;;;;;44.35;22.20;;;;;;;4.87;100.00;100993.75;20816653;28;20054;-74
2022/01/02 02:44:37;;;;;;;38.13;20.67;;;;;;;4.87;100.00;100990.28;20815452;28;20053;-74
2022/01/02 02:54:40;;;;;;;35.03;18.92;;;;;;;4.71;100.00;100963.22;20815140;28;20057;-75
2022/01/02 03:04:42;;;;;;;39.55;20.90;;;;;;;4.65;100.00;100944.97;20826779;28;20045;-74
2022/01/02 03:14:43;;;;;;;41.20;21.10;;;;;;;4.71;100.00;100942.47;20829281;28;20053;-73
2022/01/02 03:24:49;;;;;;;43.40;23.73;;;;;;;4.75;100.00;100944.28;20827731;28;20095;-74
2022/01/02 03:34:51;;;;;;;44.92;24.00;;;;;;;4.78;100.00;100936.53;20827746;28;20045;-74
2022/01/02 03:44:53;;;;;;;43.83;23.63;;;;;;;4.76;100.00;100907.09;20827349;28;20368;-75
2022/01/02 03:54:55;;;;;;;45.83;24.83;;;;;;;4.79;100.00;100889.00;20826176;28;20060;-72
2022/01/02 04:04:56;;;;;;;43.60;23.63;;;;;;;4.88;100.00;100868.34;20824504;28;20103;-72
2022/01/02 04:14:58;;;;;;;42.72;23.40;;;;;;;4.93;100.00;100876.22;20825394;28;20057;-72
2022/01/02 04:25:00;;;;;;;42.47;22.75;;;;;;;4.98;100.00;100877.16;20824390;28;20518;-73
2022/01/02 04:35:02;;;;;;;39.40;22.02;;;;;;;4.98;100.00;100865.91;20822488;28;20049;-72
2022/01/02 04:45:05;;;;;;;37.65;21.35;;;;;;;4.96;100.00;100854.63;20821870;28;20049;-72
2022/01/02 04:55:07;;;;;;;38.65;21.20;;;;;;;4.96;100.00;100844.25;20821025;28;20049;-72
2022/01/02 05:05:09;;;;;;;38.15;20.45;;;;;;;4.85;100.00;100806.06;20820243;28;20115;-72
2022/01/02 05:15:10;;;;;;;38.55;21.40;;;;;;;4.85;100.00;100838.91;20819688;28;20080;-73
2022/01/02 05:25:12;;;;;;;37.05;20.85;;;;;;;4.84;100.00;100819.88;20817869;28;20049;-73
2022/01/02 05:35:13;;;;;;;38.40;20.83;;;;;;;4.78;100.00;100858.69;20818385;28;20103;-73
2022/01/02 05:45:16;;;;;;;36.20;19.88;;;;;;;4.87;100.00;100817.31;20818293;28;20615;-72
2022/01/02 05:55:17;;;;;;;38.05;19.83;;;;;;;4.86;100.00;100818.19;20816947;28;20168;-72
2022/01/02 06:05:19;;;;;;;40.55;21.13;;;;;;;4.91;100.00;100835.53;20815664;28;20053;-72
2022/01/02 06:15:20;;;;;;;37.47;19.85;;;;;;;4.93;100.00;100818.25;20816859;28;20053;-73
2022/01/02 06:25:22;;;;;;;35.65;19.65;;;;;;;5.01;100.00;100806.25;20816159;28;20050;-73
2022/01/02 06:35:26;;;;;;;34.95;19.35;;;;;;;5.03;100.00;100797.66;20821045;28;20057;-73
2022/01/02 06:45:29;;;;;;;35.93;20.00;;;;;;;5.04;100.00;100769.97;20832209;28;20494;-72
2022/01/02 06:55:31;;;;;;;34.90;19.98;;;;;;;5.05;100.00;100787.28;20830360;28;20482;-73
2022/01/02 07:05:32;;;;;;;41.88;20.90;;;;;;;4.91;100.00;100778.44;20829149;28;20561;-73
2022/01/02 07:15:34;;;;;;;34.40;19.75;;;;;;;4.85;100.00;100784.44;20829775;28;20410;-72
2022/01/02 07:25:36;;;;;;;34.72;20.05;;;;;;;4.82;100.00;100790.44;20831148;28;20057;-72
2022/01/02 07:35:37;;;;;;;31.27;18.70;;;;;;;4.86;100.00;100784.44;20828533;28;20049;-72
2022/01/02 07:45:59;;;;;;;39.42;22.88;;;;;;;4.96;100.00;100771.59;20827201;28;20077;-72
2022/01/02 07:56:00;;;;;;;39.05;20.50;;;;;;;5.08;100.00;100766.59;20826380;28;20053;-72
2022/01/02 08:06:02;;;;;;;32.50;18.77;;;;;;;5.25;100.00;100774.56;20855961;28;20102;-72
2022/01/02 08:16:03;;;;;;;36.22;20.30;;;;;;;5.42;100.00;100773.03;20899677;28;20198;-72
2022/01/02 08:26:05;;;;;;;33.08;19.25;;;;;;;5.66;100.00;100751.66;20899265;28;20053;-72
2022/01/02 08:36:07;;;;;;;34.70;18.65;;;;;;;5.79;100.00;100748.28;20898062;28;20177;-72
2022/01/02 08:46:09;;;;;;;27.80;16.60;;;;;;;6.00;100.00;100741.59;20897559;28;20431;-72
2022/01/02 08:56:11;;;;;;;28.42;16.30;;;;;;;6.28;100.00;100769.56;20896192;28;20059;-72
2022/01/02 09:06:12;;;;;;;27.85;15.43;;;;;;;6.69;100.00;100768.94;20895488;28;20071;-72
2022/01/02 09:16:14;;;;;;;22.50;14.07;;;;;;;6.92;100.00;100746.53;20895040;28;20094;-72
2022/01/02 09:26:16;;;;;;;24.05;13.98;;;;;;;7.11;100.00;100757.88;20894729;28;20069;-73
2022/01/02 09:36:18;;;;;;;22.33;12.95;;;;;;;7.13;100.00;100747.47;20893765;28;20049;-72
2022/01/02 09:46:21;;;;;;;18.77;10.38;;;;;;;7.07;100.00;100761.34;20893592;28;20102;-72
2022/01/02 09:56:23;;;;;;;16.20;9.50;;;;;;;7.32;100.00;100732.78;20893295;28;20049;-73
2022/01/02 10:06:40;;;;;;;14.52;8.43;;;;;;;7.52;100.00;100714.59;20894200;28;20045;-72
2022/01/02 10:16:46;;;;;;;13.80;8.38;;;;;;;7.85;100.00;100721.56;20920626;28;20665;-73
2022/01/02 10:27:05;;;;;;;12.80;8.00;;;;;;;8.26;100.00;100653.75;20919553;28;20301;-73
2022/01/02 10:37:07;;;;;;;14.00;7.80;;;;;;;8.48;99.22;100671.13;20918956;28;20049;-72
2022/01/02 10:47:21;;;;;;;10.93;6.63;;;;;;;8.55;95.88;100643.25;20918634;28;20049;-73
2022/01/02 10:57:23;;;;;;;7.23;4.10;;;;;;;9.02;85.91;100641.31;20918168;28;20102;-73
2022/01/02 11:07:26;;;;;;;8.48;5.13;;;;;;;9.33;80.71;100621.06;20917806;28;20102;-73
2022/01/02 11:17:28;;;;;;;9.82;4.90;;;;;;;9.48;77.00;100627.06;20917078;28;20057;-73
2022/01/02 11:27:49;;;;;;;9.48;5.57;;;;;;;9.52;76.91;100620.91;20905202;28;20073;-73
2022/01/02 11:37:53;;;;;;;9.70;5.97;;;;;;;9.69;77.22;100631.25;20902596;28;20053;-73
2022/01/02 11:47:55;;;;;;;8.43;5.05;;;;;;;9.92;76.06;100598.81;20902643;28;20059;-74
2022/01/02 11:57:56;;;;;;;8.60;4.85;;;;;;;10.00;75.54;100553.34;20901588;28;20053;-74
2022/01/02 12:07:58;;;;;;;9.88;5.07;;;;;;;9.95;75.54;100570.84;20900556;28;20075;-73
2022/01/02 12:18:15;;;;;;;9.20;4.80;;;;;;;9.96;75.06;100530.72;20899769;28;20099;-74
2022/01/02 12:28:16;;;;;;;8.25;4.28;;;;;;;10.21;72.09;100497.31;20899044;28;20136;-74
2022/01/02 12:38:18;;;;;;;6.95;3.75;;;;;;;10.40;70.98;100537.25;20895770;28;20468;-74
2022/01/02 12:48:33;;;;;;;10.05;4.35;;;;;;;10.44;70.95;100507.53;20896400;28;20044;-73
2022/01/02 12:58:36;;;;;;;7.90;4.40;;;;;;;10.24;72.61;100519.97;20896253;28;20053;-73
2022/01/02 13:08:38;;;;;;;9.32;4.78;;;;;;;10.07;74.51;100495.75;20895081;28;20403;-71
2022/01/02 13:18:39;;;;;;;11.23;5.10;;;;;;;9.93;75.03;100528.16;20888796;28;20045;-74
2022/01/02 13:28:41;;;;;;;12.93;4.70;;;;;;;9.96;75.09;100530.72;20893683;28;20079;-71
2022/01/02 13:38:55;;;;;;;9.45;4.50;;;;;;;10.25;73.80;100521.69;20892044;28;20055;-72
2022/01/02 13:48:57;;;;;;;9.80;4.90;;;;;;;10.35;72.85;100541.66;20890797;28;20099;-74
2022/01/02 13:58:58;;;;;;;7.35;4.43;;;;;;;10.60;73.92;100560.53;20892581;28;20055;-71
2022/01/02 14:09:05;;;;;;;10.63;3.53;;;;;;;11.27;72.16;100559.56;20891658;28;20045;-72
2022/01/02 14:19:07;;;;;;;7.57;3.83;;;;;;;11.78;70.65;100558.66;20891924;28;20061;-71
2022/01/02 14:29:08;;;;;;;7.88;3.60;;;;;;;11.80;71.21;100570.88;20892110;28;20102;-71
2022/01/02 14:39:11;;;;;;;8.57;3.20;;;;;;;11.82;72.09;100578.75;20890386;28;20053;-71
2022/01/02 14:49:13;;;;;;;8.43;3.35;;;;;;;11.80;72.62;100596.25;20891671;28;20045;-71
2022/01/02 14:59:14;;;;;;;7.55;3.45;;;;;;;11.47;75.08;100598.53;20900702;28;20469;-71
2022/01/02 15:09:16;;;;;;;8.73;3.38;;;;;;;11.35;75.78;100617.06;20904399;28;20559;-72
2022/01/02 15:19:19;;;;;;;9.60;3.33;;;;;;;11.38;76.40;100622.28;20893912;28;20053;-72
2022/01/02 15:29:21;;;;;;;8.43;3.20;;;;;;;11.40;75.62;100631.00;20903193;28;20490;-71
2022/01/02 15:39:22;;;;;;;9.00;3.28;;;;;;;11.42;75.60;100608.25;20897432;28;20045;-72
2022/01/02 15:49:24;;;;;;;8.18;3.13;;;;;;;11.35;75.50;100611.84;20900597;28;20079;-72
2022/01/02 15:59:26;;;;;;;7.20;3.05;;;;;;;11.47;74.40;100627.38;20899113;28;20542;-72
2022/01/02 16:09:28;;;;;;;6.22;3.10;;;;;;;11.54;74.45;100625.53;20898613;28;20131;-72
2022/01/02 16:19:34;;;;;;;7.85;3.00;;;;;;;11.50;75.30;100611.63;20898608;28;20060;-71
2022/01/02 16:29:35;;;;;;;9.73;3.28;;;;;;;11.55;75.36;100607.16;20898213;28;20095;-71
2022/01/02 16:39:37;;;;;;;9.02;3.33;;;;;;;11.48;76.19;100613.38;20897060;28;20102;-71
2022/01/02 16:49:38;;;;;;;8.95;3.15;;;;;;;11.29;77.10;100609.31;20897580;28;20061;-71
2022/01/02 16:59:40;;;;;;;8.27;3.40;;;;;;;11.11;77.82;100620.06;20895783;28;20056;-71
2022/01/02 17:09:41;;;;;;;8.85;3.83;;;;;;;11.17;78.80;100630.47;20894449;28;20076;-71
2022/01/02 17:19:43;;;;;;;8.52;3.75;;;;;;;11.11;78.38;100641.03;20894120;28;20060;-71
2022/01/02 17:29:44;;;;;;;7.50;3.72;;;;;;;11.00;79.43;100623.72;20894167;28;20049;-71
2022/01/02 17:39:46;;;;;;;8.18;3.80;;;;;;;10.60;82.38;100626.00;20892351;28;20445;-71
2022/01/02 17:49:48;;;;;;;8.85;4.13;;;;;;;10.43;84.68;100601.75;20891953;28;20060;-71
2022/01/02 17:59:50;;;;;;;9.68;4.25;;;;;;;10.23;85.25;100589.75;20892601;28;20652;-71
2022/01/02 18:09:56;;;;;;;9.05;4.63;;;;;;;10.15;86.87;100590.69;20891476;28;20045;-71
2022/01/02 18:19:57;;;;;;;8.98;4.13;;;;;;;10.10;87.30;100580.28;20891025;28;20117;-71
2022/01/02 18:30:00;;;;;;;12.05;4.40;;;;;;;10.08;87.73;100582.06;20896287;28;20110;-71
2022/01/02 18:40:03;;;;;;;11.50;5.15;;;;;;;10.06;89.37;100603.88;20906766;28;20102;-71
2022/01/02 18:50:07;;;;;;;9.07;3.55;;;;;;;10.31;87.34;100600.16;20878215;28;20107;-72
2022/01/02 19:00:09;;;;;;;9.63;3.70;;;;;;;10.59;85.61;100573.63;20856975;28;20057;-72
2022/01/02 19:10:11;;;;;;;9.95;4.65;;;;;;;10.89;83.50;100601.19;20865066;28;20053;-71
2022/01/02 19:20:18;;;;;;;10.27;4.97;;;;;;;11.17;80.56;100580.69;20858646;28;20160;-71
2022/01/02 19:30:23;;;;;;;10.35;3.30;;;;;;;11.26;79.43;100556.97;20861773;28;20434;-71
2022/01/02 19:40:24;;;;;;;;;;;;;;;11.25;79.37;100542.09;20860397;28;20466;-71
2022/01/02 19:50:25;;;;;;;6.68;2.67;;;;;;;11.27;77.75;100532.47;20861874;28;20336;-71
2022/01/02 20:00:27;;;;;;;7.18;2.20;;;;;;;11.50;76.92;100539.97;20858743;28;20554;-71
2022/01/02 20:10:29;;;;;;;8.73;2.90;;;;;;;11.57;76.84;100552.91;20687308;28;20076;-71
2022/01/02 20:20:30;;;;;;;9.52;2.13;;;;;;;11.91;74.82;100530.50;20610879;28;20054;-72
2022/01/02 20:30:32;;;;;;;8.57;2.05;;;;;;;11.89;74.61;100524.41;20613097;28;20103;-72
2022/01/02 20:40:33;;;;;;;6.93;2.55;;;;;;;11.92;74.85;100540.94;20769771;28;20057;-72
2022/01/02 20:50:41;;;;;;;10.30;2.30;;;;;;;11.99;73.95;100549.59;20773818;28;20076;-72
2022/01/02 21:00:43;;;;;;;7.03;1.80;;;;;;;11.91;74.75;100520.84;20771778;28;20414;-73
2022/01/02 21:10:50;;;;;;;8.10;2.58;;;;;;;11.81;75.88;100519.28;20771137;28;20477;-73
2022/01/02 21:20:51;;;;;;;7.10;2.08;;;;;;;11.81;76.18;100533.25;20773342;28;20123;-72
2022/01/02 21:30:53;;;;;;;7.90;2.55;;;;;;;11.74;77.03;100512.44;20769315;28;20390;-72
2022/01/02 21:40:54;;;;;;;5.72;1.83;;;;;;;11.79;76.58;100505.34;20766560;28;20056;-73
2022/01/02 21:50:56;;;;;;;6.78;2.08;;;;;;;11.71;77.75;100491.50;20799902;28;20103;-73
2022/01/02 22:00:58;;;;;;;8.77;2.25;;;;;;;11.87;77.15;100466.72;20788537;28;20045;-72
2022/01/02 22:11:03;;;;;;;9.20;1.95;;;;;;;12.10;75.73;100478.50;20767448;28;20061;-72
2022/01/02 22:21:06;;;;;;;6.83;2.10;;;;;;;12.31;75.01;100489.44;20768076;28;20045;-72
2022/01/02 22:31:10;;;;;;;13.10;1.80;;;;;;;12.27;76.55;100486.91;20765857;28;20050;-72
2022/01/02 22:41:11;;;;;;;8.48;1.63;;;;;;;12.20;78.69;100483.53;20765130;28;20046;-72
2022/01/02 22:51:13;;;;;;;9.95;1.98;;;;;;;12.18;77.05;100469.59;20725907;28;20100;-71
2022/01/02 23:01:15;;;;;;;11.98;1.92;;;;;;;12.35;75.21;100453.44;20747749;28;20046;-71
2022/01/02 23:11:19;;;;;;;8.80;1.73;;;;;;;12.36;75.15;100439.44;20771944;28;20046;-73
2022/01/02 23:21:22;;;;;;;9.13;1.80;;;;;;;12.47;73.97;100478.59;20782406;28;20046;-73
2022/01/02 23:31:26;;;;;;;7.68;1.50;;;;;;;12.45;73.70;100480.38;20786627;28;20100;-72
2022/01/02 23:41:27;;;;;;;9.23;1.75;;;;;;;12.49;73.70;100484.66;20783726;28;20696;-73
2022/01/02 23:51:34;;;;;;;6.95;1.45;;;;;;;12.43;74.07;100488.28;20786632;28;20054;-72
